Hovedside
METAR-TAF:

METAR-TAF

Lufthavner :

Oruro, Bolivia

breddegrad: 17-58S, lengdegrad: 067-04W, høyde over havet: 3072 m

Gjeldene værobservasjon

Denne rapporten ble laget for 4 timer og 1 minutter siden, klokken 00:00 UTC
Vind 5 kt fra Nord
Temperatur 10°C
Luftfuktighet 87%
Trykk 1030 hPa
Sikt 10 km eller mer
Få skyer i en høyde av 1500 ft
Få skyer i en høyde av 1700 ft, Bygeskyer.
Spredte skyer i en høyde av 7000 ft

METAR: SLOR 290000Z 35005KT 9999 FEW015 FEW017CB SCT070 10/08 Q1030

Tid: 00:01 (04:01 UTC)


TAF: fraværende

Værobservasjoner og værvarsel for over 4000 flyplasser (METAR- og TAF-rapporter).

Tilgjengelige stasjoner er representert av de røde og gule prikkene på kartet.

Hold musepekeren over prikken for å se navnet på stasjonen.

Klikk så for å se værobservasjoner og -varsler.

For å forandre kartet kan du klikke på den grønne knappen med svart kryss for å zoome inn, på den grønne knappen med strek for å zoome ut, eller på de grønne pilene for å se tilstøtende kart.


METAR-TAF: